Time,TemperatureF,DewpointF,PressureIn,WindDirection,WindDirectionDegrees,WindSpeedMPH,WindSpeedGustMPH,Humidity,HourlyPrecipIn,Conditions,Clouds,dailyrainin,SoftwareType,DateUTC
2013-05-23 00:01:00,66.0,61.0,28.60,East,90,5.8,0.0,84,0.00,RA,SKC,0.00,WeatherDisplay:10.37,2013-05-23 04:01:00,
2013-05-23 00:02:00,66.0,61.0,28.60,East,90,0.0,0.0,84,0.00,RA,SKC,0.00,WeatherDisplay:10.37,2013-05-23 04:02:00,
2013-05-23 00:03:00,66.0,61.0,28.60,East,90,0.0,0.0,84,0.00,RA,SKC,0.00,WeatherDisplay:10.37,2013-05-23 04:03:00,
2013-05-23 00:04:00,66.0,61.0,28.60,East,90,0.0,0.0,84,0.00,RA,SKC,0.00,WeatherDisplay:10.37,2013-05-23 04:04:00,
2013-05-23 00:09:00,66.0,61.0,28.60,East,90,0.0,0.0,84,0.00,RA,SKC,0.00,WeatherDisplay:10.37,2013-05-23 04:09:00,
2013-05-23 00:14:00,66.0,60.4,28.59,SE,135,4.6,4.6,82,0.00,CLR,SKC,0.00,WeatherDisplay:10.37,2013-05-23 04:14:00,
2013-05-23 00:19:00,66.0,60.4,28.58,SE,135,0.0,0.0,82,0.00,CLR,SKC,0.00,WeatherDisplay:10.37,2013-05-23 04:19:00,
2013-05-23 00:24:00,66.0,60.0,28.59,SE,135,1.2,0.0,81,0.00,CLR,SKC,0.00,WeatherDisplay:10.37,2013-05-23 04:24:00,
2013-05-23 00:29:00,65.8,59.8,28.59,SE,135,2.3,2.3,81,0.00,CLR,SKC,0.00,WeatherDisplay:10.37,2013-05-23 04:29:00,
2013-05-23 00:34:00,65.7,59.7,28.59,SE,135,3.5,0.0,81,0.00,CLR,SKC,0.00,WeatherDisplay:10.37,2013-05-23 04:34:00,
2013-05-23 00:39:00,65.5,59.8,28.59,SE,135,6.9,0.0,82,0.00,CLR,SKC,0.00,WeatherDisplay:10.37,2013-05-23 04:39:00,
2013-05-23 00:44:00,65.5,59.5,28.59,East,90,3.5,0.0,81,0.00,CLR,SKC,0.00,WeatherDisplay:10.37,2013-05-23 04:44:00,
2013-05-23 00:49:00,65.5,59.5,28.59,East,90,2.3,2.3,81,0.00,CLR,SKC,0.00,WeatherDisplay:10.37,2013-05-23 04:49:00,
2013-05-23 00:54:00,65.3,59.7,28.59,East,90,3.5,3.5,82,0.00,CLR,SKC,0.00,WeatherDisplay:10.37,2013-05-23 04:54:00,
2013-05-23 00:59:00,65.1,59.5,28.58,South,180,1.2,1.2,82,0.00,CLR,SKC,0.00,WeatherDisplay:10.37,2013-05-23 04:59:00,
2013-05-23 01:04:00,64.9,59.7,28.59,East,90,3.5,3.5,83,0.00,CLR,SKC,0.00,WeatherDisplay:10.37,2013-05-23 05:04:00,
2013-05-23 01:09:00,64.9,60.0,28.59,SE,135,2.3,0.0,84,0.00,CLR,SKC,0.00,WeatherDisplay:10.37,2013-05-23 05:09:00,
2013-05-23 01:14:00,64.8,60.1,28.60,South,180,3.5,3.5,85,0.00,CLR,SKC,0.00,WeatherDisplay:10.37,2013-05-23 05:14:00,
2013-05-23 01:19:00,64.8,60.1,28.61,SE,135,3.5,3.5,85,0.01,RA,SKC,0.01,WeatherDisplay:10.37,2013-05-23 05:19:00,
2013-05-23 01:24:00,64.6,60.0,28.61,North,7,2.3,2.3,85,0.01,RA,SKC,0.01,WeatherDisplay:10.37,2013-05-23 05:24:00,
2013-05-23 01:29:00,64.4,60.1,28.61,NE,45,1.2,1.2,86,0.01,,SKC,0.01,WeatherDisplay:10.37,2013-05-23 05:29:00,
2013-05-23 01:34:00,64.2,60.3,28.61,East,90,0.0,0.0,87,0.01,CLR,SKC,0.01,WeatherDisplay:10.37,2013-05-23 05:34:00,
2013-05-23 01:39:00,64.0,60.4,28.62,ESE,112,0.0,0.0,88,0.02,RA,SKC,0.02,WeatherDisplay:10.37,2013-05-23 05:39:00,
2013-05-23 01:44:00,64.0,61.4,28.63,South,180,3.5,3.5,91,0.07,RA,SKC,0.07,WeatherDisplay:10.37,2013-05-23 05:44:00,
2013-05-23 01:49:00,63.7,63.7,28.64,South,180,6.9,6.9,100,0.13,RA,SKC,0.13,WeatherDisplay:10.37,2013-05-23 05:49:00,
2013-05-23 01:54:00,63.5,63.5,28.64,NW,315,3.5,3.5,100,0.17,RA,SKC,0.17,WeatherDisplay:10.37,2013-05-23 05:54:00,
2013-05-23 01:59:00,63.5,63.5,28.64,East,90,3.5,3.5,100,0.20,RA,SKC,0.20,WeatherDisplay:10.37,2013-05-23 05:59:00,
2013-05-23 02:04:00,63.5,63.5,28.63,SE,135,2.3,2.3,100,0.21,RA,SKC,0.21,WeatherDisplay:10.37,2013-05-23 06:04:00,
2013-05-23 02:09:00,63.5,63.5,28.63,SE,135,3.5,3.5,100,0.25,RA,SKC,0.25,WeatherDisplay:10.37,2013-05-23 06:09:00,
2013-05-23 02:14:00,63.3,63.3,28.62,East,90,3.5,3.5,100,0.26,RA,SKC,0.26,WeatherDisplay:10.37,2013-05-23 06:14:00,
2013-05-23 02:19:00,63.1,63.1,28.62,SE,135,2.3,2.3,100,0.26,RA,SKC,0.27,WeatherDisplay:10.37,2013-05-23 06:19:00,
2013-05-23 02:24:00,63.1,63.1,28.62,East,90,1.2,0.0,100,0.27,RA,SKC,0.28,WeatherDisplay:10.37,2013-05-23 06:24:00,
2013-05-23 02:29:00,63.1,63.1,28.62,East,90,3.5,3.5,100,0.30,RA,SKC,0.31,WeatherDisplay:10.37,2013-05-23 06:29:00,
2013-05-23 02:34:00,63.1,63.1,28.61,NE,45,2.3,0.0,100,0.31,RA,SKC,0.32,WeatherDisplay:10.37,2013-05-23 06:34:00,
2013-05-23 02:39:00,63.0,63.0,28.60,East,90,3.5,3.5,100,0.30,RA,SKC,0.32,WeatherDisplay:10.37,2013-05-23 06:39:00,
2013-05-23 02:44:00,63.0,63.0,28.60,East,90,0.0,0.0,100,0.25,,SKC,0.32,WeatherDisplay:10.37,2013-05-23 06:44:00,
2013-05-23 02:49:00,63.0,63.0,28.59,East,90,2.3,2.3,100,0.20,RA,SKC,0.33,WeatherDisplay:10.37,2013-05-23 06:49:00,
2013-05-23 02:54:00,63.0,63.0,28.60,East,90,0.0,0.0,100,0.17,RA,SKC,0.33,WeatherDisplay:10.37,2013-05-23 06:54:00,
2013-05-23 02:59:00,62.8,62.8,28.60,East,90,0.0,0.0,100,0.13,,SKC,0.33,WeatherDisplay:10.37,2013-05-23 06:59:00,
2013-05-23 03:04:00,62.8,62.8,28.60,SE,135,0.0,0.0,100,0.12,CLR,SKC,0.33,WeatherDisplay:10.37,2013-05-23 07:04:00,
2013-05-23 03:09:00,62.8,62.8,28.59,SE,135,6.9,6.9,100,0.08,CLR,SKC,0.33,WeatherDisplay:10.37,2013-05-23 07:09:00,
2013-05-23 03:14:00,62.8,62.8,28.59,East,90,3.5,3.5,100,0.07,CLR,SKC,0.33,WeatherDisplay:10.37,2013-05-23 07:14:00,
2013-05-23 03:19:00,62.6,62.6,28.59,SE,135,3.5,3.5,100,0.06,CLR,SKC,0.33,WeatherDisplay:10.37,2013-05-23 07:19:00,
2013-05-23 03:24:00,62.4,62.4,28.58,NE,45,2.3,2.3,100,0.05,CLR,SKC,0.33,WeatherDisplay:10.37,2013-05-23 07:24:00,
2013-05-23 03:29:00,62.4,62.4,28.59,NE,45,5.8,5.8,100,0.04,RA,SKC,0.34,WeatherDisplay:10.37,2013-05-23 07:29:00,
2013-05-23 03:34:00,62.2,62.2,28.59,NE,45,3.5,3.5,100,0.02,RA,SKC,0.34,WeatherDisplay:10.37,2013-05-23 07:34:00,
2013-05-23 03:39:00,62.2,62.2,28.58,East,90,0.0,0.0,100,0.02,,SKC,0.34,WeatherDisplay:10.37,2013-05-23 07:39:00,
2013-05-23 03:44:00,62.2,62.2,28.58,SE,135,3.5,3.5,100,0.02,CLR,SKC,0.34,WeatherDisplay:10.37,2013-05-23 07:44:00,
2013-05-23 03:49:00,62.1,62.1,28.58,NE,45,2.3,0.0,100,0.01,CLR,SKC,0.34,WeatherDisplay:10.37,2013-05-23 07:49:00,
2013-05-23 03:54:00,62.1,62.1,28.58,NE,45,0.0,0.0,100,0.01,CLR,SKC,0.34,WeatherDisplay:10.37,2013-05-23 07:54:00,
2013-05-23 03:59:00,62.1,62.1,28.58,SE,135,0.0,0.0,100,0.01,CLR,SKC,0.34,WeatherDisplay:10.37,2013-05-23 07:59:00,
2013-05-23 04:04:00,62.1,62.1,28.58,South,180,0.0,0.0,100,0.01,CLR,SKC,0.34,WeatherDisplay:10.37,2013-05-23 08:04:00,
2013-05-23 04:09:00,61.9,61.9,28.58,East,90,0.0,0.0,100,0.01,CLR,SKC,0.34,WeatherDisplay:10.37,2013-05-23 08:09:00,
2013-05-23 04:14:00,61.7,61.7,28.58,SE,135,0.0,0.0,100,0.01,CLR,SKC,0.34,WeatherDisplay:10.37,2013-05-23 08:14:00,
2013-05-23 04:19:00,61.7,61.7,28.58,East,90,0.0,0.0,100,0.01,CLR,SKC,0.34,WeatherDisplay:10.37,2013-05-23 08:19:00,
2013-05-23 04:24:00,61.7,61.7,28.58,SE,135,0.0,0.0,100,0.01,CLR,SKC,0.34,WeatherDisplay:10.37,2013-05-23 08:24:00,
2013-05-23 04:29:00,61.7,61.7,28.58,East,90,0.0,0.0,100,0.00,CLR,SKC,0.34,WeatherDisplay:10.37,2013-05-23 08:29:00,
2013-05-23 04:34:00,61.7,61.7,28.58,East,90,3.5,0.0,100,0.00,CLR,SKC,0.34,WeatherDisplay:10.37,2013-05-23 08:34:00,
2013-05-23 04:39:00,61.5,61.5,28.58,NE,45,4.6,4.6,100,0.00,CLR,SKC,0.34,WeatherDisplay:10.37,2013-05-23 08:39:00,
2013-05-23 04:44:00,61.5,61.5,28.58,NE,45,0.0,0.0,100,0.00,CLR,SKC,0.34,WeatherDisplay:10.37,2013-05-23 08:44:00,
2013-05-23 04:49:00,61.5,61.5,28.58,East,90,3.5,0.0,100,0.00,CLR,SKC,0.34,WeatherDisplay:10.37,2013-05-23 08:49:00,
2013-05-23 04:54:00,61.5,61.5,28.59,SE,135,1.2,1.2,100,0.00,CLR,SKC,0.34,WeatherDisplay:10.37,2013-05-23 08:54:00,
2013-05-23 04:59:00,61.5,61.5,28.59,South,180,3.5,3.5,100,0.00,CLR,SKC,0.34,WeatherDisplay:10.37,2013-05-23 08:59:00,
2013-05-23 05:04:00,61.5,61.5,28.58,SE,135,0.0,0.0,100,0.00,CLR,SKC,0.34,WeatherDisplay:10.37,2013-05-23 09:04:00,
2013-05-23 05:09:00,61.5,61.5,28.58,SE,135,1.2,0.0,100,0.00,CLR,SKC,0.34,WeatherDisplay:10.37,2013-05-23 09:09:00,
2013-05-23 05:14:00,61.5,61.5,28.58,East,90,1.2,0.0,100,0.00,CLR,SKC,0.34,WeatherDisplay:10.37,2013-05-23 09:14:00,
2013-05-23 05:19:00,61.5,61.5,28.59,East,90,0.0,0.0,100,0.00,CLR,SKC,0.34,WeatherDisplay:10.37,2013-05-23 09:19:00,
2013-05-23 05:24:00,61.5,61.5,28.59,SE,135,0.0,0.0,100,0.00,CLR,SKC,0.34,WeatherDisplay:10.37,2013-05-23 09:24:00,
2013-05-23 05:29:00,61.5,61.5,28.59,East,90,0.0,0.0,100,0.00,CLR,SKC,0.34,WeatherDisplay:10.37,2013-05-23 09:29:00,
2013-05-23 05:34:00,61.5,61.5,28.59,East,90,0.0,0.0,100,0.00,CLR,SKC,0.34,WeatherDisplay:10.37,2013-05-23 09:34:00,
2013-05-23 05:39:00,61.5,61.5,28.59,SE,135,2.3,0.0,100,0.00,CLR,SKC,0.34,WeatherDisplay:10.37,2013-05-23 09:39:00,
2013-05-23 05:44:00,61.5,61.5,28.59,SE,135,3.5,0.0,100,0.00,CLR,SKC,0.34,WeatherDisplay:10.37,2013-05-23 09:44:00,
2013-05-23 05:49:00,61.5,61.5,28.59,East,90,0.0,0.0,100,0.00,CLR,SKC,0.34,WeatherDisplay:10.37,2013-05-23 09:49:00,
2013-05-23 05:54:00,61.5,61.5,28.60,South,180,1.2,0.0,100,0.00,CLR,SKC,0.34,WeatherDisplay:10.37,2013-05-23 09:54:00,
2013-05-23 05:59:00,61.5,61.5,28.59,South,180,2.3,0.0,100,0.00,CLR,SKC,0.34,WeatherDisplay:10.37,2013-05-23 09:59:00,
2013-05-23 06:04:00,61.7,61.7,28.60,South,180,1.2,0.0,100,0.00,CLR,SKC,0.34,WeatherDisplay:10.37,2013-05-23 10:04:00,
2013-05-23 06:09:00,61.7,61.7,28.60,East,90,2.3,0.0,100,0.00,CLR,SKC,0.34,WeatherDisplay:10.37,2013-05-23 10:09:00,
2013-05-23 06:14:00,61.7,61.7,28.60,South,180,0.0,0.0,100,0.00,CLR,SKC,0.34,WeatherDisplay:10.37,2013-05-23 10:14:00,
2013-05-23 06:19:00,61.7,61.7,28.60,East,90,2.3,2.3,100,0.00,CLR,SKC,0.34,WeatherDisplay:10.37,2013-05-23 10:19:00,
2013-05-23 06:24:00,61.7,61.7,28.60,East,90,1.2,0.0,100,0.00,CLR,SKC,0.34,WeatherDisplay:10.37,2013-05-23 10:24:00,
2013-05-23 06:29:00,61.9,61.9,28.61,SE,135,0.0,0.0,100,0.00,CLR,SKC,0.34,WeatherDisplay:10.37,2013-05-23 10:29:00,
2013-05-23 06:34:00,61.9,61.9,28.61,SE,135,0.0,0.0,100,0.00,CLR,SKC,0.34,WeatherDisplay:10.37,2013-05-23 10:34:00,
2013-05-23 06:39:00,61.9,61.9,28.61,SE,135,1.2,0.0,100,0.00,CLR,SKC,0.34,WeatherDisplay:10.37,2013-05-23 10:39:00,
2013-05-23 06:44:00,61.9,61.9,28.61,South,180,1.2,1.2,100,0.00,CLR,SKC,0.34,WeatherDisplay:10.37,2013-05-23 10:44:00,
2013-05-23 06:49:00,62.1,62.1,28.61,East,90,1.2,0.0,100,0.00,CLR,SKC,0.34,WeatherDisplay:10.37,2013-05-23 10:49:00,
2013-05-23 06:54:00,62.1,62.1,28.61,SE,135,2.3,0.0,100,0.00,CLR,SKC,0.34,WeatherDisplay:10.37,2013-05-23 10:54:00,
2013-05-23 06:59:00,62.1,62.1,28.61,East,90,0.0,0.0,100,0.00,CLR,SKC,0.34,WeatherDisplay:10.37,2013-05-23 10:59:00,
2013-05-23 07:04:00,62.1,62.1,28.61,East,90,1.2,0.0,100,0.00,CLR,SKC,0.34,WeatherDisplay:10.37,2013-05-23 11:04:00,
2013-05-23 07:09:00,62.2,62.2,28.61,SE,135,4.6,4.6,100,0.00,CLR,SKC,0.34,WeatherDisplay:10.37,2013-05-23 11:09:00,
2013-05-23 07:14:00,62.2,62.2,28.61,SE,135,3.5,0.0,100,0.00,CLR,SKC,0.34,WeatherDisplay:10.37,2013-05-23 11:14:00,
2013-05-23 07:19:00,62.2,62.2,28.61,East,90,2.3,2.3,100,0.00,CLR,SKC,0.34,WeatherDisplay:10.37,2013-05-23 11:19:00,
2013-05-23 07:24:00,62.4,62.4,28.61,SE,135,3.5,0.0,100,0.00,CLR,SKC,0.34,WeatherDisplay:10.37,2013-05-23 11:24:00,
2013-05-23 07:29:00,62.4,62.4,28.61,SE,135,4.6,0.0,100,0.00,CLR,SKC,0.34,WeatherDisplay:10.37,2013-05-23 11:29:00,
2013-05-23 07:34:00,62.4,62.4,28.61,SE,135,3.5,0.0,100,0.00,CLR,SKC,0.34,WeatherDisplay:10.37,2013-05-23 11:34:00,
2013-05-23 07:39:00,62.6,62.6,28.62,SE,135,2.3,0.0,100,0.00,CLR,SKC,0.34,WeatherDisplay:10.37,2013-05-23 11:39:00,
2013-05-23 07:44:00,62.6,62.6,28.62,East,90,2.3,2.3,100,0.00,CLR,SKC,0.34,WeatherDisplay:10.37,2013-05-23 11:44:00,
2013-05-23 07:49:00,62.6,62.6,28.62,SE,135,2.3,2.3,100,0.00,CLR,SKC,0.34,WeatherDisplay:10.37,2013-05-23 11:49:00,
2013-05-23 07:54:00,62.8,62.8,28.62,SE,135,8.1,0.0,100,0.00,CLR,SKC,0.34,WeatherDisplay:10.37,2013-05-23 11:54:00,
2013-05-23 07:59:00,62.8,62.8,28.62,East,90,5.8,5.8,100,0.00,CLR,SKC,0.34,WeatherDisplay:10.37,2013-05-23 11:59:00,
2013-05-23 08:04:00,63.0,63.0,28.62,NE,45,4.5,4.5,100,0.00,CLR,SKC,0.34,WeatherDisplay:10.37,2013-05-23 12:04:00,
2013-05-23 08:09:00,63.0,63.0,28.62,East,90,2.3,2.3,100,0.00,CLR,SKC,0.34,WeatherDisplay:10.37,2013-05-23 12:09:00,
2013-05-23 08:14:00,63.1,63.1,28.62,East,90,3.5,3.5,100,0.00,CLR,SKC,0.34,WeatherDisplay:10.37,2013-05-23 12:14:00,
2013-05-23 08:19:00,63.1,63.1,28.62,East,90,2.3,0.0,100,0.00,CLR,SKC,0.34,WeatherDisplay:10.37,2013-05-23 12:19:00,
2013-05-23 08:24:00,63.3,63.3,28.62,NE,45,6.9,6.9,100,0.00,CLR,SKC,0.34,WeatherDisplay:10.37,2013-05-23 12:24:00,
2013-05-23 08:29:00,63.5,63.5,28.61,ENE,68,2.3,0.0,100,0.00,CLR,SKC,0.34,WeatherDisplay:10.37,2013-05-23 12:29:00,
2013-05-23 08:34:00,63.9,63.9,28.61,SE,135,3.5,3.5,100,0.00,CLR,SKC,0.34,WeatherDisplay:10.37,2013-05-23 12:34:00,
2013-05-23 08:39:00,64.0,64.0,28.61,NE,45,3.5,3.5,100,0.00,CLR,SKC,0.34,WeatherDisplay:10.37,2013-05-23 12:39:00,
2013-05-23 08:44:00,64.0,64.0,28.61,SE,135,2.3,0.0,100,0.00,CLR,SKC,0.34,WeatherDisplay:10.37,2013-05-23 12:44:00,
2013-05-23 08:49:00,64.0,64.0,28.62,East,90,3.5,3.5,100,0.00,CLR,SKC,0.34,WeatherDisplay:10.37,2013-05-23 12:49:00,
2013-05-23 08:54:00,64.2,64.2,28.62,SE,135,4.6,4.6,100,0.00,CLR,SKC,0.34,WeatherDisplay:10.37,2013-05-23 12:54:00,
2013-05-23 08:59:00,64.8,64.8,28.62,East,90,5.8,0.0,100,0.00,CLR,SKC,0.34,WeatherDisplay:10.37,2013-05-23 12:59:00,
2013-05-23 09:04:00,65.3,65.3,28.61,SE,135,1.2,0.0,100,0.00,CLR,SKC,0.34,WeatherDisplay:10.37,2013-05-23 13:04:00,
2013-05-23 09:09:00,65.3,65.3,28.62,SE,135,3.5,3.5,100,0.00,CLR,SKC,0.34,WeatherDisplay:10.37,2013-05-23 13:09:00,
2013-05-23 09:14:00,65.5,65.5,28.62,South,180,5.8,5.8,100,0.00,CLR,SKC,0.34,WeatherDisplay:10.37,2013-05-23 13:14:00,
2013-05-23 09:19:00,66.2,66.2,28.62,East,90,0.0,0.0,100,0.00,CLR,SKC,0.34,WeatherDisplay:10.37,2013-05-23 13:19:00,
2013-05-23 09:24:00,66.6,66.6,28.62,East,90,5.8,5.8,100,0.00,CLR,SKC,0.34,WeatherDisplay:10.37,2013-05-23 13:24:00,
2013-05-23 09:29:00,66.9,66.9,28.62,East,90,3.5,3.5,100,0.00,CLR,SKC,0.34,WeatherDisplay:10.37,2013-05-23 13:29:00,
2013-05-23 09:34:00,67.3,22.3,28.61,South,180,3.5,3.5,18,0.00,CLR,SKC,0.34,WeatherDisplay:10.37,2013-05-23 13:34:00,
2013-05-23 09:39:00,67.5,22.4,28.62,East,90,3.5,3.5,18,0.00,CLR,SKC,0.34,WeatherDisplay:10.37,2013-05-23 13:39:00,
2013-05-23 09:44:00,67.6,22.6,28.62,SE,135,2.3,0.0,18,0.00,CLR,SKC,0.34,WeatherDisplay:10.37,2013-05-23 13:44:00,
2013-05-23 09:49:00,68.2,23.0,28.62,SE,135,5.8,5.8,18,0.00,CLR,SKC,0.34,WeatherDisplay:10.37,2013-05-23 13:49:00,
2013-05-23 09:54:00,69.4,24.0,28.62,South,180,3.5,3.5,18,0.00,CLR,SKC,0.34,WeatherDisplay:10.37,2013-05-23 13:54:00,
2013-05-23 09:59:00,69.6,24.2,28.61,SE,135,2.3,0.0,18,0.00,CLR,SKC,0.34,WeatherDisplay:10.37,2013-05-23 13:59:00,
2013-05-23 10:04:00,69.6,24.2,28.61,South,180,4.6,4.6,18,0.00,CLR,SKC,0.34,WeatherDisplay:10.37,2013-05-23 14:04:00,
2013-05-23 10:09:00,69.6,24.2,28.62,North,8,5.8,5.8,18,0.00,CLR,SKC,0.34,WeatherDisplay:10.37,2013-05-23 14:09:00,
2013-05-23 10:14:00,69.8,24.3,28.61,South,180,5.8,5.8,18,0.00,CLR,SKC,0.34,WeatherDisplay:10.37,2013-05-23 14:14:00,
2013-05-23 10:19:00,70.5,24.9,28.61,North,0,5.8,5.8,18,0.00,CLR,SKC,0.34,WeatherDisplay:10.37,2013-05-23 14:19:00,
2013-05-23 10:24:00,71.2,25.5,28.61,SE,135,3.5,3.5,18,0.00,CLR,SKC,0.34,WeatherDisplay:10.37,2013-05-23 14:24:00,
2013-05-23 10:29:00,71.6,25.8,28.61,SE,135,4.6,4.6,18,0.00,CLR,SKC,0.34,WeatherDisplay:10.37,2013-05-23 14:29:00,
2013-05-23 10:34:00,72.5,26.5,28.61,South,180,3.5,3.5,18,0.00,CLR,SKC,0.34,WeatherDisplay:10.37,2013-05-23 14:34:00,
2013-05-23 10:39:00,73.9,27.7,28.61,East,90,3.5,3.5,18,0.00,CLR,SKC,0.34,WeatherDisplay:10.37,2013-05-23 14:39:00,
2013-05-23 10:44:00,74.1,27.9,28.61,East,90,5.8,5.8,18,0.00,CLR,SKC,0.34,WeatherDisplay:10.37,2013-05-23 14:44:00,
2013-05-23 10:49:00,74.3,28.0,28.61,SE,135,5.8,5.8,18,0.00,CLR,SKC,0.34,WeatherDisplay:10.37,2013-05-23 14:49:00,
2013-05-23 10:54:00,74.3,28.0,28.61,NW,315,1.2,1.2,18,0.00,CLR,SKC,0.34,WeatherDisplay:10.37,2013-05-23 14:54:00,
2013-05-23 10:59:00,75.6,29.0,28.61,South,180,3.5,3.5,18,0.00,CLR,SKC,0.34,WeatherDisplay:10.37,2013-05-23 14:59:00,
2013-05-23 11:04:00,77.2,30.4,28.61,SE,135,5.8,5.8,18,0.00,CLR,SKC,0.34,WeatherDisplay:10.37,2013-05-23 15:04:00,
2013-05-23 11:09:00,77.4,30.5,28.61,SE,135,10.4,10.4,18,0.00,CLR,SKC,0.34,WeatherDisplay:10.37,2013-05-23 15:09:00,
2013-05-23 11:14:00,77.2,30.4,28.61,South,180,7.6,7.6,18,0.00,CLR,SKC,0.34,WeatherDisplay:10.37,2013-05-23 15:14:00,
2013-05-23 11:19:00,77.7,30.8,28.61,South,180,0.0,0.0,18,0.00,CLR,SKC,0.34,WeatherDisplay:10.37,2013-05-23 15:19:00,
2013-05-23 11:24:00,78.8,31.7,28.61,South,180,3.5,3.5,18,0.00,CLR,SKC,0.34,WeatherDisplay:10.37,2013-05-23 15:24:00,
2013-05-23 11:29:00,78.3,31.3,28.61,South,180,4.6,4.6,18,0.00,CLR,SKC,0.34,WeatherDisplay:10.37,2013-05-23 15:29:00,
2013-05-23 11:34:00,78.3,31.3,28.61,East,90,3.5,3.5,18,0.00,CLR,SKC,0.34,WeatherDisplay:10.37,2013-05-23 15:34:00,
2013-05-23 11:39:00,78.1,31.1,28.61,West,270,12.7,12.7,18,0.00,CLR,SKC,0.34,WeatherDisplay:10.37,2013-05-23 15:39:00,
2013-05-23 11:44:00,78.3,31.3,28.61,SE,135,2.3,2.3,18,0.00,CLR,SKC,0.34,WeatherDisplay:10.37,2013-05-23 15:44:00,
2013-05-23 11:49:00,78.1,31.1,28.61,East,90,5.8,5.8,18,0.00,CLR,SKC,0.34,WeatherDisplay:10.37,2013-05-23 15:49:00,
2013-05-23 11:54:00,77.0,30.2,28.61,South,180,12.7,12.7,18,0.00,CLR,SKC,0.34,WeatherDisplay:10.37,2013-05-23 15:54:00,
2013-05-23 11:59:00,77.5,30.7,28.61,NE,45,6.9,6.9,18,0.00,CLR,SKC,0.34,WeatherDisplay:10.37,2013-05-23 15:59:00,
2013-05-23 12:04:00,77.7,30.8,28.61,SE,135,8.1,8.1,18,0.00,CLR,SKC,0.34,WeatherDisplay:10.37,2013-05-23 16:04:00,
2013-05-23 12:09:00,77.5,30.7,28.61,East,90,5.8,5.8,18,0.00,CLR,SKC,0.34,WeatherDisplay:10.37,2013-05-23 16:09:00,
2013-05-23 12:14:00,77.5,30.7,28.61,South,180,3.5,3.5,18,0.00,CLR,SKC,0.34,WeatherDisplay:10.37,2013-05-23 16:14:00,
2013-05-23 12:19:00,77.2,30.4,28.61,East,90,6.9,6.9,18,0.00,CLR,SKC,0.34,WeatherDisplay:10.37,2013-05-23 16:19:00,
2013-05-23 12:24:00,78.3,31.3,28.60,East,90,3.5,0.0,18,0.00,CLR,SKC,0.34,WeatherDisplay:10.37,2013-05-23 16:24:00,
2013-05-23 12:29:00,78.1,31.1,28.60,SE,135,8.1,8.1,18,0.00,CLR,SKC,0.34,WeatherDisplay:10.37,2013-05-23 16:29:00,
2013-05-23 12:34:00,79.0,31.8,28.60,East,90,6.9,6.9,18,0.00,CLR,SKC,0.34,WeatherDisplay:10.37,2013-05-23 16:34:00,
2013-05-23 12:39:00,79.0,31.8,28.60,East,90,3.5,3.5,18,0.00,CLR,SKC,0.34,WeatherDisplay:10.37,2013-05-23 16:39:00,
2013-05-23 12:44:00,79.9,32.6,28.60,SE,135,8.1,8.1,18,0.00,CLR,SKC,0.34,WeatherDisplay:10.37,2013-05-23 16:44:00,
2013-05-23 12:49:00,80.6,33.2,28.59,South,180,8.1,8.1,18,0.00,CLR,SKC,0.34,WeatherDisplay:10.37,2013-05-23 16:49:00,
2013-05-23 12:54:00,80.6,33.2,28.59,SE,135,4.6,0.0,18,0.00,CLR,SKC,0.34,WeatherDisplay:10.37,2013-05-23 16:54:00,
2013-05-23 12:59:00,80.1,32.7,28.59,North,0,5.8,5.8,18,0.00,CLR,SKC,0.34,WeatherDisplay:10.37,2013-05-23 16:59:00,
2013-05-23 13:04:00,79.2,29.1,28.59,SE,135,5.8,0.0,16,0.00,CLR,SKC,0.34,WeatherDisplay:10.37,2013-05-23 17:04:00,
2013-05-23 13:09:00,79.3,38.3,28.58,NNE,13,3.5,0.0,23,0.00,CLR,SKC,0.34,WeatherDisplay:10.37,2013-05-23 17:09:00,
2013-05-23 13:14:00,78.6,42.8,28.58,SE,135,4.6,4.6,28,0.00,CLR,SKC,0.34,WeatherDisplay:10.37,2013-05-23 17:14:00,
2013-05-23 13:19:00,78.1,47.4,28.59,South,180,5.8,5.8,34,0.00,CLR,SKC,0.34,WeatherDisplay:10.37,2013-05-23 17:19:00,
2013-05-23 13:24:00,77.5,51.3,28.58,East,90,3.5,3.5,40,0.00,CLR,SKC,0.34,WeatherDisplay:10.37,2013-05-23 17:24:00,
2013-05-23 13:29:00,77.7,50.1,28.58,South,180,11.5,11.5,38,0.00,CLR,SKC,0.34,WeatherDisplay:10.37,2013-05-23 17:29:00,
2013-05-23 13:34:00,78.4,52.1,28.58,NE,45,8.1,8.1,40,0.00,CLR,SKC,0.34,WeatherDisplay:10.37,2013-05-23 17:34:00,
2013-05-23 13:39:00,78.8,51.0,28.58,SE,135,9.2,9.2,38,0.00,CLR,SKC,0.34,WeatherDisplay:10.37,2013-05-23 17:39:00,
2013-05-23 13:44:00,79.0,53.9,28.57,East,90,8.1,8.1,42,0.00,CLR,SKC,0.34,WeatherDisplay:10.37,2013-05-23 17:44:00,
2013-05-23 13:49:00,78.6,53.6,28.57,NE,45,10.4,10.4,42,0.00,CLR,SKC,0.34,WeatherDisplay:10.37,2013-05-23 17:49:00,
2013-05-23 13:54:00,79.0,55.2,28.56,NE,45,4.6,4.6,44,0.00,CLR,SKC,0.34,WeatherDisplay:10.37,2013-05-23 17:54:00,
2013-05-23 13:59:00,80.2,53.7,28.56,ENE,68,5.8,5.8,40,0.00,CLR,SKC,0.34,WeatherDisplay:10.37,2013-05-23 17:59:00,
2013-05-23 14:04:00,80.2,55.7,28.57,East,90,6.9,6.9,43,0.00,CLR,SKC,0.34,WeatherDisplay:10.37,2013-05-23 18:04:00,
2013-05-23 14:09:00,80.4,54.6,28.56,SE,135,8.1,8.1,41,0.00,CLR,SKC,0.34,WeatherDisplay:10.37,2013-05-23 18:09:00,
2013-05-23 14:14:00,79.5,56.9,28.57,SE,135,9.2,9.2,46,0.00,CLR,SKC,0.34,WeatherDisplay:10.37,2013-05-23 18:14:00,
2013-05-23 14:19:00,79.2,58.4,28.57,NE,45,8.1,8.1,49,0.00,CLR,SKC,0.34,WeatherDisplay:10.37,2013-05-23 18:19:00,
2013-05-23 14:24:00,78.8,58.0,28.56,East,90,0.0,0.0,49,0.00,CLR,SKC,0.34,WeatherDisplay:10.37,2013-05-23 18:24:00,
2013-05-23 14:29:00,78.3,59.7,28.56,NE,45,3.5,3.5,53,0.00,CLR,SKC,0.34,WeatherDisplay:10.37,2013-05-23 18:29:00,
2013-05-23 14:34:00,77.2,60.3,28.57,East,90,8.1,8.1,56,0.00,CLR,SKC,0.34,WeatherDisplay:10.37,2013-05-23 18:34:00,
2013-05-23 14:39:00,73.9,56.2,28.57,SE,135,17.3,17.3,54,0.00,CLR,SKC,0.34,WeatherDisplay:10.37,2013-05-23 18:39:00,
2013-05-23 14:44:00,70.9,54.9,28.58,South,180,3.5,3.5,57,0.00,CLR,SKC,0.34,WeatherDisplay:10.37,2013-05-23 18:44:00,
2013-05-23 14:49:00,69.4,56.7,28.60,South,180,7.6,7.6,64,0.00,CLR,SKC,0.34,WeatherDisplay:10.37,2013-05-23 18:49:00,
2013-05-23 14:54:00,66.7,58.6,28.61,South,180,6.9,6.9,75,0.01,RA,SKC,0.37,WeatherDisplay:10.37,2013-05-23 18:54:00,
2013-05-23 14:59:00,63.9,59.3,28.60,East,90,1.2,1.6,85,0.19,RA,SKC,0.54,WeatherDisplay:10.37,2013-05-23 18:59:00,
2013-05-23 15:04:00,62.2,62.0,28.58,South,180,1.2,2.2,99,0.27,RA,SKC,0.63,WeatherDisplay:10.37,2013-05-23 19:04:00,
2013-05-23 15:09:00,61.3,61.3,28.58,NW,315,6.9,6.9,100,0.31,RA,SKC,0.65,WeatherDisplay:10.37,2013-05-23 19:09:00,
2013-05-23 15:14:00,61.0,61.0,28.58,South,180,5.8,5.8,100,0.31,RA,SKC,0.65,WeatherDisplay:10.37,2013-05-23 19:14:00,
2013-05-23 15:19:00,61.0,61.0,28.59,South,180,4.6,4.6,100,0.31,,SKC,0.65,WeatherDisplay:10.37,2013-05-23 19:19:00,
2013-05-23 15:24:00,61.0,61.0,28.59,SE,135,3.5,3.5,100,0.31,CLR,SKC,0.65,WeatherDisplay:10.37,2013-05-23 19:24:00,
2013-05-23 15:29:00,61.0,61.0,28.59,SE,135,3.5,0.0,100,0.33,RA,SKC,0.67,WeatherDisplay:10.37,2013-05-23 19:29:00,
2013-05-23 15:34:00,61.0,61.0,28.58,NE,45,3.5,0.0,100,0.33,RA,SKC,0.67,WeatherDisplay:10.37,2013-05-23 19:34:00,
2013-05-23 15:39:00,61.2,61.2,28.58,East,90,3.5,3.5,100,0.33,,SKC,0.67,WeatherDisplay:10.37,2013-05-23 19:39:00,
2013-05-23 15:45:00,61.2,61.2,28.58,East,90,0.0,0.0,100,0.33,CLR,SKC,0.67,WeatherDisplay:10.37,2013-05-23 19:45:00,
2013-05-23 15:49:00,61.3,61.3,28.59,East,90,0.0,0.0,100,0.34,RA,SKC,0.69,WeatherDisplay:10.37,2013-05-23 19:49:00,
2013-05-23 15:54:00,61.5,61.5,28.58,NE,45,1.2,0.0,100,0.33,RA,SKC,0.69,WeatherDisplay:10.37,2013-05-23 19:54:00,
2013-05-23 15:59:00,61.7,61.7,28.58,East,90,2.3,2.3,100,0.15,,SKC,0.69,WeatherDisplay:10.37,2013-05-23 19:59:00,
2013-05-23 16:04:00,61.7,61.7,28.58,NE,45,3.5,3.5,100,0.07,CLR,SKC,0.69,WeatherDisplay:10.37,2013-05-23 20:04:00,
2013-05-23 16:09:00,61.7,61.7,28.58,East,90,3.5,3.5,100,0.04,CLR,SKC,0.69,WeatherDisplay:10.37,2013-05-23 20:09:00,
2013-05-23 16:14:00,61.9,61.9,28.57,SE,135,5.8,5.8,100,0.04,CLR,SKC,0.69,WeatherDisplay:10.37,2013-05-23 20:14:00,
2013-05-23 16:19:00,61.9,61.9,28.57,SE,135,4.6,4.6,100,0.04,CLR,SKC,0.69,WeatherDisplay:10.37,2013-05-23 20:19:00,
2013-05-23 16:24:00,62.1,62.1,28.57,East,90,3.5,0.0,100,0.04,CLR,SKC,0.69,WeatherDisplay:10.37,2013-05-23 20:24:00,
2013-05-23 16:29:00,62.1,62.1,28.57,SE,135,0.0,0.0,100,0.01,CLR,SKC,0.69,WeatherDisplay:10.37,2013-05-23 20:29:00,
2013-05-23 16:34:00,62.2,62.2,28.57,East,90,0.0,0.0,100,0.01,CLR,SKC,0.69,WeatherDisplay:10.37,2013-05-23 20:34:00,
2013-05-23 16:39:00,62.4,62.4,28.57,East,90,0.0,0.0,100,0.01,CLR,SKC,0.69,WeatherDisplay:10.37,2013-05-23 20:39:00,
2013-05-23 16:44:00,62.4,62.4,28.57,NNE,22,0.0,0.0,100,0.01,CLR,SKC,0.69,WeatherDisplay:10.37,2013-05-23 20:44:00,
2013-05-23 16:49:00,62.4,62.4,28.57,SE,135,3.5,3.5,100,0.01,RA,SKC,0.70,WeatherDisplay:10.37,2013-05-23 20:49:00,
2013-05-23 16:54:00,62.6,62.6,28.56,ENE,68,3.5,3.5,100,0.01,RA,SKC,0.70,WeatherDisplay:10.37,2013-05-23 20:54:00,
2013-05-23 16:59:00,62.6,62.6,28.56,NE,45,5.8,0.0,100,0.01,,SKC,0.70,WeatherDisplay:10.37,2013-05-23 20:59:00,
2013-05-23 17:04:00,63.0,63.0,28.56,East,90,3.5,3.5,100,0.01,CLR,SKC,0.70,WeatherDisplay:10.37,2013-05-23 21:04:00,
2013-05-23 17:09:00,63.0,63.0,28.56,East,90,3.5,3.5,100,0.01,CLR,SKC,0.70,WeatherDisplay:10.37,2013-05-23 21:09:00,
2013-05-23 17:14:00,63.0,63.0,28.56,NE,45,3.5,3.5,100,0.01,CLR,SKC,0.70,WeatherDisplay:10.37,2013-05-23 21:14:00,
2013-05-23 17:19:00,63.1,63.1,28.56,East,90,3.5,3.5,100,0.01,CLR,SKC,0.70,WeatherDisplay:10.37,2013-05-23 21:19:00,
2013-05-23 17:24:00,63.0,63.0,28.56,ENE,68,5.8,5.8,100,0.01,CLR,SKC,0.70,WeatherDisplay:10.37,2013-05-23 21:24:00,
2013-05-23 17:29:00,63.0,63.0,28.56,East,90,2.3,2.3,100,0.01,CLR,SKC,0.70,WeatherDisplay:10.37,2013-05-23 21:29:00,
2013-05-23 17:34:00,63.0,63.0,28.56,East,90,4.6,4.6,100,0.01,CLR,SKC,0.70,WeatherDisplay:10.37,2013-05-23 21:34:00,
2013-05-23 17:39:00,63.0,63.0,28.56,East,90,3.5,0.0,100,0.01,CLR,SKC,0.70,WeatherDisplay:10.37,2013-05-23 21:39:00,
2013-05-23 17:44:00,63.0,63.0,28.56,East,90,4.6,4.6,100,0.01,CLR,SKC,0.70,WeatherDisplay:10.37,2013-05-23 21:44:00,
2013-05-23 17:49:00,63.0,63.0,28.56,SE,135,4.6,4.6,100,0.00,CLR,SKC,0.70,WeatherDisplay:10.37,2013-05-23 21:49:00,
2013-05-23 17:54:00,63.1,63.1,28.56,East,90,4.6,0.0,100,0.00,CLR,SKC,0.70,WeatherDisplay:10.37,2013-05-23 21:54:00,
2013-05-23 17:59:00,63.1,63.1,28.56,East,90,3.5,0.0,100,0.00,CLR,SKC,0.70,WeatherDisplay:10.37,2013-05-23 21:59:00,
2013-05-23 18:04:00,63.3,63.3,28.57,SE,135,5.8,5.8,100,0.00,CLR,SKC,0.70,WeatherDisplay:10.37,2013-05-23 22:04:00,
2013-05-23 18:09:00,63.3,63.3,28.56,East,90,3.5,3.5,100,0.00,CLR,SKC,0.70,WeatherDisplay:10.37,2013-05-23 22:09:00,
2013-05-23 18:14:00,63.5,63.5,28.56,SE,135,3.8,3.8,100,0.00,CLR,SKC,0.70,WeatherDisplay:10.37,2013-05-23 22:14:00,
2013-05-23 18:19:00,63.7,63.7,28.56,South,180,5.8,5.8,100,0.00,CLR,SKC,0.70,WeatherDisplay:10.37,2013-05-23 22:19:00,
2013-05-23 18:24:00,64.0,64.0,28.56,SE,135,3.5,3.5,100,0.00,CLR,SKC,0.70,WeatherDisplay:10.37,2013-05-23 22:24:00,
2013-05-23 18:29:00,64.0,64.0,28.56,East,90,3.5,3.5,100,0.00,CLR,SKC,0.70,WeatherDisplay:10.37,2013-05-23 22:29:00,
2013-05-23 18:34:00,63.9,63.9,28.56,SE,135,5.8,5.8,100,0.00,CLR,SKC,0.70,WeatherDisplay:10.37,2013-05-23 22:34:00,
2013-05-23 18:39:00,63.9,63.9,28.56,South,180,5.8,5.8,100,0.00,CLR,SKC,0.70,WeatherDisplay:10.37,2013-05-23 22:39:00,
2013-05-23 18:44:00,63.7,63.7,28.57,East,90,1.2,0.0,100,0.00,CLR,SKC,0.70,WeatherDisplay:10.37,2013-05-23 22:44:00,
2013-05-23 18:49:00,63.5,63.5,28.57,NE,45,2.3,0.0,100,0.00,CLR,SKC,0.70,WeatherDisplay:10.37,2013-05-23 22:49:00,
2013-05-23 18:54:00,63.5,63.5,28.57,East,90,3.5,3.5,100,0.00,CLR,SKC,0.70,WeatherDisplay:10.37,2013-05-23 22:54:00,
2013-05-23 18:59:00,63.3,63.3,28.57,South,180,1.2,1.2,100,0.00,CLR,SKC,0.70,WeatherDisplay:10.37,2013-05-23 22:59:00,
2013-05-23 19:04:00,63.3,63.3,28.58,South,180,3.5,3.5,100,0.01,RA,SKC,0.71,WeatherDisplay:10.37,2013-05-23 23:04:00,
2013-05-23 19:09:00,63.0,63.0,28.58,West,270,9.2,9.2,100,0.02,RA,SKC,0.72,WeatherDisplay:10.37,2013-05-23 23:09:00,
2013-05-23 19:14:00,62.6,62.6,28.57,North,8,9.2,9.2,100,0.04,RA,SKC,0.73,WeatherDisplay:10.37,2013-05-23 23:14:00,
2013-05-23 19:19:00,62.4,62.4,28.57,North,8,3.8,3.8,100,0.05,RA,SKC,0.74,WeatherDisplay:10.37,2013-05-23 23:19:00,
2013-05-23 19:24:00,62.2,62.2,28.57,North,8,3.5,3.5,100,0.05,RA,SKC,0.74,WeatherDisplay:10.37,2013-05-23 23:24:00,
2013-05-23 19:29:00,62.2,62.2,28.57,South,180,5.8,5.8,100,0.05,,SKC,0.74,WeatherDisplay:10.37,2013-05-23 23:29:00,
2013-05-23 19:34:00,62.1,62.1,28.57,South,180,4.6,4.6,100,0.05,CLR,SKC,0.74,WeatherDisplay:10.37,2013-05-23 23:34:00,
2013-05-23 19:39:00,61.9,61.9,28.57,South,180,3.5,3.5,100,0.05,CLR,SKC,0.74,WeatherDisplay:10.37,2013-05-23 23:39:00,
2013-05-23 19:44:00,61.7,61.7,28.57,South,180,3.5,0.0,100,0.05,CLR,SKC,0.74,WeatherDisplay:10.37,2013-05-23 23:44:00,
2013-05-23 19:49:00,61.7,61.7,28.57,South,180,3.5,3.5,100,0.05,CLR,SKC,0.74,WeatherDisplay:10.37,2013-05-23 23:49:00,
2013-05-23 19:54:00,61.7,61.7,28.58,North,0,3.5,0.0,100,0.05,CLR,SKC,0.74,WeatherDisplay:10.37,2013-05-23 23:54:00,
2013-05-23 19:59:00,61.5,61.5,28.58,South,180,1.2,0.0,100,0.05,CLR,SKC,0.74,WeatherDisplay:10.37,2013-05-23 23:59:00,
2013-05-23 20:04:00,61.3,61.3,28.58,South,180,0.0,0.0,100,0.04,CLR,SKC,0.74,WeatherDisplay:10.37,2013-05-24 00:04:00,
2013-05-23 20:09:00,61.5,61.5,28.58,South,180,0.0,0.0,100,0.02,CLR,SKC,0.74,WeatherDisplay:10.37,2013-05-24 00:09:00,
2013-05-23 20:14:00,61.3,61.3,28.59,SE,135,0.0,0.0,100,0.01,CLR,SKC,0.74,WeatherDisplay:10.37,2013-05-24 00:14:00,
2013-05-23 20:19:00,61.3,61.3,28.58,North,8,3.5,3.5,100,0.00,CLR,SKC,0.74,WeatherDisplay:10.37,2013-05-24 00:19:00,
2013-05-23 20:24:00,61.2,61.2,28.58,South,180,0.0,0.0,100,0.00,CLR,SKC,0.74,WeatherDisplay:10.37,2013-05-24 00:24:00,
2013-05-23 20:29:00,61.2,61.2,28.58,South,180,0.0,0.0,100,0.00,CLR,SKC,0.74,WeatherDisplay:10.37,2013-05-24 00:29:00,
2013-05-23 20:34:00,61.2,61.2,28.58,South,180,1.2,0.0,100,0.00,CLR,SKC,0.74,WeatherDisplay:10.37,2013-05-24 00:34:00,
2013-05-23 20:39:00,61.3,61.3,28.59,South,180,6.9,6.9,100,0.01,RA,SKC,0.77,WeatherDisplay:10.37,2013-05-24 00:39:00,
2013-05-23 20:44:00,61.2,61.2,28.60,South,180,3.5,0.0,100,0.06,RA,SKC,0.80,WeatherDisplay:10.37,2013-05-24 00:44:00,
2013-05-23 20:49:00,61.0,61.0,28.60,South,180,9.2,9.2,100,0.07,RA,SKC,0.81,WeatherDisplay:10.37,2013-05-24 00:49:00,
2013-05-23 20:54:00,60.6,60.6,28.59,NW,315,6.9,6.9,100,0.07,RA,SKC,0.81,WeatherDisplay:10.37,2013-05-24 00:54:00,
2013-05-23 20:59:00,60.4,60.4,28.59,West,270,5.8,5.8,100,0.07,CLR,SKC,0.81,WeatherDisplay:10.37,2013-05-24 00:59:00,
2013-05-23 21:04:00,60.3,60.3,28.59,South,180,5.8,5.8,100,0.08,RA,SKC,0.84,WeatherDisplay:10.37,2013-05-24 01:04:00,
2013-05-23 21:09:00,60.3,60.3,28.59,South,180,2.3,0.0,100,0.09,RA,SKC,0.84,WeatherDisplay:10.37,2013-05-24 01:09:00,
2013-05-23 21:14:00,60.1,60.1,28.60,South,180,2.3,2.3,100,0.11,RA,SKC,0.85,WeatherDisplay:10.37,2013-05-24 01:14:00,
2013-05-23 21:19:00,60.1,60.1,28.60,South,180,3.5,0.0,100,0.12,RA,SKC,0.86,WeatherDisplay:10.37,2013-05-24 01:19:00,
2013-05-23 21:24:00,59.9,59.9,28.59,North,8,3.5,3.5,100,0.12,RA,SKC,0.86,WeatherDisplay:10.37,2013-05-24 01:24:00,
2013-05-23 21:29:00,59.7,59.7,28.59,South,180,3.1,3.1,100,0.12,,SKC,0.86,WeatherDisplay:10.37,2013-05-24 01:29:00,
2013-05-23 21:34:00,59.7,59.7,28.59,South,180,3.8,3.8,100,0.12,CLR,SKC,0.86,WeatherDisplay:10.37,2013-05-24 01:34:00,
2013-05-23 21:39:00,59.5,59.5,28.60,South,180,2.3,0.0,100,0.11,CLR,SKC,0.86,WeatherDisplay:10.37,2013-05-24 01:39:00,
2013-05-23 21:44:00,59.5,59.5,28.59,South,180,2.3,0.0,100,0.06,CLR,SKC,0.86,WeatherDisplay:10.37,2013-05-24 01:44:00,
2013-05-23 21:49:00,59.5,59.5,28.60,SE,135,1.2,0.0,100,0.05,CLR,SKC,0.86,WeatherDisplay:10.37,2013-05-24 01:49:00,
2013-05-23 21:54:00,59.5,59.5,28.60,South,180,3.5,3.5,100,0.05,CLR,SKC,0.86,WeatherDisplay:10.37,2013-05-24 01:54:00,
2013-05-23 21:59:00,59.5,59.5,28.60,South,180,2.3,0.0,100,0.05,CLR,SKC,0.86,WeatherDisplay:10.37,2013-05-24 01:59:00,
2013-05-23 22:04:00,59.7,59.7,28.61,North,0,0.0,0.0,100,0.04,CLR,SKC,0.86,WeatherDisplay:10.37,2013-05-24 02:04:00,
2013-05-23 22:09:00,59.7,59.7,28.61,North,0,0.0,0.0,100,0.02,CLR,SKC,0.86,WeatherDisplay:10.37,2013-05-24 02:09:00,
2013-05-23 22:14:00,59.7,59.7,28.61,South,180,0.0,0.0,100,0.01,CLR,SKC,0.86,WeatherDisplay:10.37,2013-05-24 02:14:00,
2013-05-23 22:19:00,59.7,59.7,28.61,South,180,5.8,5.8,100,0.00,CLR,SKC,0.86,WeatherDisplay:10.37,2013-05-24 02:19:00,
2013-05-23 22:24:00,59.7,59.7,28.61,NW,315,4.6,4.6,100,0.00,CLR,SKC,0.86,WeatherDisplay:10.37,2013-05-24 02:24:00,
2013-05-23 22:29:00,59.9,59.9,28.61,North,1,3.5,3.5,100,0.00,CLR,SKC,0.86,WeatherDisplay:10.37,2013-05-24 02:29:00,
2013-05-23 22:34:00,60.1,60.1,28.61,North,0,6.9,6.9,100,0.00,CLR,SKC,0.86,WeatherDisplay:10.37,2013-05-24 02:34:00,
2013-05-23 22:39:00,60.1,60.1,28.62,North,0,5.8,5.8,100,0.00,CLR,SKC,0.86,WeatherDisplay:10.37,2013-05-24 02:39:00,
2013-05-23 22:44:00,59.9,59.9,28.61,NW,315,5.8,5.8,100,0.00,CLR,SKC,0.86,WeatherDisplay:10.37,2013-05-24 02:44:00,
2013-05-23 22:49:00,59.5,59.5,28.61,West,270,8.1,8.1,100,0.01,RA,SKC,0.87,WeatherDisplay:10.37,2013-05-24 02:49:00,
2013-05-23 22:54:00,59.5,59.5,28.62,North,1,10.4,10.4,100,0.01,RA,SKC,0.87,WeatherDisplay:10.37,2013-05-24 02:54:00,
2013-05-23 22:59:00,59.4,59.4,28.61,NW,315,10.4,10.4,100,0.01,,SKC,0.87,WeatherDisplay:10.37,2013-05-24 02:59:00,
2013-05-23 23:04:00,59.0,59.0,28.62,NNE,15,12.7,12.7,100,0.01,CLR,SKC,0.87,WeatherDisplay:10.37,2013-05-24 03:04:00,
2013-05-23 23:09:00,59.0,59.0,28.62,North,0,8.3,8.3,100,0.01,CLR,SKC,0.87,WeatherDisplay:10.37,2013-05-24 03:09:00,
2013-05-23 23:14:00,58.5,58.2,28.63,North,0,19.6,19.6,99,0.01,CLR,SKC,0.87,WeatherDisplay:10.37,2013-05-24 03:14:00,
2013-05-23 23:19:00,57.4,56.2,28.63,South,180,17.3,17.3,96,0.01,CLR,SKC,0.87,WeatherDisplay:10.37,2013-05-24 03:19:00,
2013-05-23 23:24:00,56.3,56.3,28.64,NNE,12,20.7,20.7,100,0.01,CLR,SKC,0.87,WeatherDisplay:10.37,2013-05-24 03:24:00,
2013-05-23 23:29:00,55.4,55.4,28.64,NW,315,18.4,18.4,100,0.01,CLR,SKC,0.87,WeatherDisplay:10.37,2013-05-24 03:29:00,
2013-05-23 23:34:00,54.7,54.7,28.64,West,270,16.1,16.1,100,0.01,CLR,SKC,0.87,WeatherDisplay:10.37,2013-05-24 03:34:00,
2013-05-23 23:39:00,53.6,53.6,28.64,NNE,14,18.4,18.4,100,0.01,CLR,SKC,0.87,WeatherDisplay:10.37,2013-05-24 03:39:00,
2013-05-23 23:44:00,53.4,53.4,28.64,NW,315,10.4,10.4,100,0.01,CLR,SKC,0.87,WeatherDisplay:10.37,2013-05-24 03:44:00,
2013-05-23 23:49:00,52.3,52.3,28.65,South,180,17.3,17.3,100,0.01,RA,SKC,0.89,WeatherDisplay:10.37,2013-05-24 03:49:00,
2013-05-23 23:54:00,51.8,51.8,28.65,North,8,16.1,16.1,100,0.01,RA,SKC,0.89,WeatherDisplay:10.37,2013-05-24 03:54:00,
2013-05-23 23:59:00,51.4,51.4,28.65,NNE,15,10.4,10.4,100,0.01,CLR,SKC,0.89,WeatherDisplay:10.37,2013-05-24 03:59:00,